sensor_id;sensor_type;location;lat;lon;timestamp;pressure;altitude;pressure_sealevel;temperature;humidity
35888;BME280;21990;42.540;23.496;2023-04-08T00:00:34;93566.38;;;3.42;80.76
35888;BME280;21990;42.540;23.496;2023-04-08T00:03:00;93566.16;;;3.45;81.04
35888;BME280;21990;42.540;23.496;2023-04-08T00:05:26;93567.50;;;3.50;80.91
35888;BME280;21990;42.540;23.496;2023-04-08T00:07:52;93564.97;;;3.52;81.23
35888;BME280;21990;42.540;23.496;2023-04-08T00:10:18;93562.13;;;3.46;80.67
35888;BME280;21990;42.540;23.496;2023-04-08T00:12:44;93579.19;;;3.54;81.57
35888;BME280;21990;42.540;23.496;2023-04-08T00:15:09;93572.84;;;3.53;80.87
35888;BME280;21990;42.540;23.496;2023-04-08T00:17:35;93568.59;;;3.38;80.26
35888;BME280;21990;42.540;23.496;2023-04-08T00:20:01;93566.41;;;3.27;80.99
35888;BME280;21990;42.540;23.496;2023-04-08T00:22:27;93575.53;;;3.27;81.31
35888;BME280;21990;42.540;23.496;2023-04-08T00:24:52;93579.19;;;3.33;80.86
35888;BME280;21990;42.540;23.496;2023-04-08T00:27:18;93578.41;;;3.33;81.06
35888;BME280;21990;42.540;23.496;2023-04-08T00:29:43;93576.66;;;3.35;80.63
35888;BME280;21990;42.540;23.496;2023-04-08T00:32:09;93574.44;;;3.40;81.06
35888;BME280;21990;42.540;23.496;2023-04-08T00:34:34;93573.97;;;3.41;80.92
35888;BME280;21990;42.540;23.496;2023-04-08T00:37:01;93570.63;;;3.37;80.34
35888;BME280;21990;42.540;23.496;2023-04-08T00:39:27;93569.94;;;3.42;80.35
35888;BME280;21990;42.540;23.496;2023-04-08T00:41:52;93574.44;;;3.40;80.24
35888;BME280;21990;42.540;23.496;2023-04-08T00:44:18;93577.50;;;3.42;79.86
35888;BME280;21990;42.540;23.496;2023-04-08T00:46:43;93573.41;;;3.37;80.21
35888;BME280;21990;42.540;23.496;2023-04-08T00:49:09;93579.94;;;3.34;79.98
35888;BME280;21990;42.540;23.496;2023-04-08T00:51:34;93579.66;;;3.32;80.49
35888;BME280;21990;42.540;23.496;2023-04-08T00:54:04;93572.53;;;3.31;80.88
35888;BME280;21990;42.540;23.496;2023-04-08T00:56:31;93578.66;;;3.15;80.77
35888;BME280;21990;42.540;23.496;2023-04-08T00:58:58;93566.25;;;3.16;81.20
35888;BME280;21990;42.540;23.496;2023-04-08T01:04:01;93574.41;;;3.19;81.78
35888;BME280;21990;42.540;23.496;2023-04-08T01:06:37;93573.28;;;3.11;82.05
35888;BME280;21990;42.540;23.496;2023-04-08T01:09:08;93576.16;;;3.17;82.53
35888;BME280;21990;42.540;23.496;2023-04-08T01:11:37;93574.91;;;3.18;83.06
35888;BME280;21990;42.540;23.496;2023-04-08T01:14:06;93577.91;;;3.14;82.74
35888;BME280;21990;42.540;23.496;2023-04-08T01:16:36;93565.31;;;3.19;82.42
35888;BME280;21990;42.540;23.496;2023-04-08T01:19:04;93577.00;;;3.23;81.80
35888;BME280;21990;42.540;23.496;2023-04-08T01:21:34;93570.38;;;3.20;81.75
35888;BME280;21990;42.540;23.496;2023-04-08T01:24:07;93577.50;;;3.21;82.04
35888;BME280;21990;42.540;23.496;2023-04-08T01:26:35;93582.13;;;3.10;81.71
35888;BME280;21990;42.540;23.496;2023-04-08T01:29:02;93580.44;;;2.98;81.95
35888;BME280;21990;42.540;23.496;2023-04-08T01:31:28;93581.19;;;2.98;82.52
35888;BME280;21990;42.540;23.496;2023-04-08T01:33:56;93582.91;;;3.10;82.33
35888;BME280;21990;42.540;23.496;2023-04-08T01:36:24;93582.13;;;3.10;82.58
35888;BME280;21990;42.540;23.496;2023-04-08T01:38:50;93578.84;;;3.11;82.66
35888;BME280;21990;42.540;23.496;2023-04-08T01:41:17;93581.63;;;3.11;83.00
35888;BME280;21990;42.540;23.496;2023-04-08T01:43:43;93577.81;;;3.09;83.37
35888;BME280;21990;42.540;23.496;2023-04-08T01:46:11;93587.19;;;3.11;83.10
35888;BME280;21990;42.540;23.496;2023-04-08T01:48:38;93590.53;;;3.15;82.85
35888;BME280;21990;42.540;23.496;2023-04-08T01:51:05;93591.72;;;3.09;82.74
35888;BME280;21990;42.540;23.496;2023-04-08T01:53:32;93595.38;;;3.15;82.44
35888;BME280;21990;42.540;23.496;2023-04-08T01:56:03;93592.38;;;3.18;81.93
35888;BME280;21990;42.540;23.496;2023-04-08T01:58:38;93591.88;;;3.20;82.44
35888;BME280;21990;42.540;23.496;2023-04-08T02:01:09;93608.69;;;3.25;83.32
35888;BME280;21990;42.540;23.496;2023-04-08T02:03:36;93612.34;;;3.17;82.96
35888;BME280;21990;42.540;23.496;2023-04-08T02:06:02;93607.81;;;3.19;83.10
35888;BME280;21990;42.540;23.496;2023-04-08T02:08:28;93610.59;;;3.19;83.02
35888;BME280;21990;42.540;23.496;2023-04-08T02:10:53;93609.84;;;3.19;83.02
35888;BME280;21990;42.540;23.496;2023-04-08T02:13:19;93610.91;;;3.21;83.13
35888;BME280;21990;42.540;23.496;2023-04-08T02:15:50;93609.34;;;3.20;82.90
35888;BME280;21990;42.540;23.496;2023-04-08T02:18:24;93611.88;;;3.18;83.17
35888;BME280;21990;42.540;23.496;2023-04-08T02:21:09;93613.47;;;3.25;83.67
35888;BME280;21990;42.540;23.496;2023-04-08T02:23:38;93603.78;;;3.20;82.60
35888;BME280;21990;42.540;23.496;2023-04-08T02:26:07;93608.13;;;3.21;82.82
35888;BME280;21990;42.540;23.496;2023-04-08T02:28:38;93612.13;;;3.20;82.77
35888;BME280;21990;42.540;23.496;2023-04-08T02:31:08;93612.13;;;3.20;83.20
35888;BME280;21990;42.540;23.496;2023-04-08T02:33:35;93606.38;;;3.24;83.42
35888;BME280;21990;42.540;23.496;2023-04-08T02:36:04;93606.88;;;3.22;82.89
35888;BME280;21990;42.540;23.496;2023-04-08T02:38:30;93590.28;;;3.13;82.96
35888;BME280;21990;42.540;23.496;2023-04-08T02:40:56;93602.88;;;3.09;83.02
35888;BME280;21990;42.540;23.496;2023-04-08T02:43:22;93597.88;;;3.13;83.85
35888;BME280;21990;42.540;23.496;2023-04-08T02:45:54;93606.97;;;3.13;83.86
35888;BME280;21990;42.540;23.496;2023-04-08T02:48:19;93600.16;;;3.14;84.03
35888;BME280;21990;42.540;23.496;2023-04-08T02:50:45;93594.09;;;3.16;83.51
35888;BME280;21990;42.540;23.496;2023-04-08T02:53:10;93601.41;;;3.13;83.65
35888;BME280;21990;42.540;23.496;2023-04-08T02:55:36;93612.66;;;3.19;83.97
35888;BME280;21990;42.540;23.496;2023-04-08T02:58:02;93608.78;;;3.16;84.02
35888;BME280;21990;42.540;23.496;2023-04-08T03:00:27;93609.56;;;3.17;84.14
35888;BME280;21990;42.540;23.496;2023-04-08T03:02:53;93601.97;;;3.17;83.88
35888;BME280;21990;42.540;23.496;2023-04-08T03:05:18;93605.81;;;3.20;83.68
35888;BME280;21990;42.540;23.496;2023-04-08T03:07:44;93608.53;;;3.14;83.58
35888;BME280;21990;42.540;23.496;2023-04-08T03:10:10;93599.88;;;3.12;83.38
35888;BME280;21990;42.540;23.496;2023-04-08T03:12:36;93611.88;;;3.18;82.94
35888;BME280;21990;42.540;23.496;2023-04-08T03:15:02;93606.00;;;3.16;82.69
35888;BME280;21990;42.540;23.496;2023-04-08T03:17:28;93609.34;;;3.20;82.64
35888;BME280;21990;42.540;23.496;2023-04-08T03:19:54;93601.88;;;3.26;83.47
35888;BME280;21990;42.540;23.496;2023-04-08T03:22:20;93596.97;;;3.21;83.97
35888;BME280;21990;42.540;23.496;2023-04-08T03:24:45;93604.84;;;3.23;83.76
35888;BME280;21990;42.540;23.496;2023-04-08T03:27:11;93603.53;;;3.18;83.60
35888;BME280;21990;42.540;23.496;2023-04-08T03:29:38;93615.34;;;3.13;83.41
35888;BME280;21990;42.540;23.496;2023-04-08T03:32:04;93600.16;;;3.14;83.43
35888;BME280;21990;42.540;23.496;2023-04-08T03:34:29;93608.78;;;3.16;83.71
35888;BME280;21990;42.540;23.496;2023-04-08T03:36:55;93611.31;;;3.14;83.71
35888;BME280;21990;42.540;23.496;2023-04-08T03:39:21;93615.44;;;3.19;84.12
35888;BME280;21990;42.540;23.496;2023-04-08T03:41:46;93607.34;;;3.21;83.45
35888;BME280;21990;42.540;23.496;2023-04-08T03:44:12;93605.34;;;3.21;84.01
35888;BME280;21990;42.540;23.496;2023-04-08T03:46:37;93608.31;;;3.18;83.75
35888;BME280;21990;42.540;23.496;2023-04-08T03:49:03;93610.34;;;3.17;83.41
35888;BME280;21990;42.540;23.496;2023-04-08T03:51:28;93614.34;;;3.16;83.64
35888;BME280;21990;42.540;23.496;2023-04-08T03:53:54;93607.25;;;3.15;83.50
35888;BME280;21990;42.540;23.496;2023-04-08T03:56:20;93606.78;;;3.17;84.01
35888;BME280;21990;42.540;23.496;2023-04-08T03:58:46;93605.25;;;3.16;84.26
35888;BME280;21990;42.540;23.496;2023-04-08T04:01:11;93600.75;;;3.18;84.55
35888;BME280;21990;42.540;23.496;2023-04-08T04:03:37;93612.81;;;3.15;84.38
35888;BME280;21990;42.540;23.496;2023-04-08T04:06:02;93607.56;;;3.17;84.21
35888;BME280;21990;42.540;23.496;2023-04-08T04:08:28;93599.09;;;3.12;84.47
35888;BME280;21990;42.540;23.496;2023-04-08T04:10:53;93601.88;;;3.12;84.48
35888;BME280;21990;42.540;23.496;2023-04-08T04:13:19;93606.97;;;3.13;84.18
35888;BME280;21990;42.540;23.496;2023-04-08T04:15:44;93604.09;;;3.08;84.61
35888;BME280;21990;42.540;23.496;2023-04-08T04:18:10;93613.03;;;3.12;84.16
35888;BME280;21990;42.540;23.496;2023-04-08T04:20:39;93614.56;;;3.13;84.24
35888;BME280;21990;42.540;23.496;2023-04-08T04:23:05;93615.03;;;3.11;84.46
35888;BME280;21990;42.540;23.496;2023-04-08T04:25:31;93623.97;;;3.15;84.36
35888;BME280;21990;42.540;23.496;2023-04-08T04:27:56;93623.13;;;3.09;84.20
35888;BME280;21990;42.540;23.496;2023-04-08T04:30:22;93623.88;;;3.10;84.67
35888;BME280;21990;42.540;23.496;2023-04-08T04:32:48;93614.00;;;3.09;84.85
35888;BME280;21990;42.540;23.496;2023-04-08T04:35:13;93618.31;;;3.10;84.88
35888;BME280;21990;42.540;23.496;2023-04-08T04:37:39;93623.47;;;3.17;84.79
35888;BME280;21990;42.540;23.496;2023-04-08T04:40:05;93620.69;;;3.17;84.95
35888;BME280;21990;42.540;23.496;2023-04-08T04:42:31;93615.81;;;3.12;84.78
35888;BME280;21990;42.540;23.496;2023-04-08T04:44:57;93619.94;;;3.16;85.06
35888;BME280;21990;42.540;23.496;2023-04-08T04:47:24;93611.31;;;3.14;84.61
35888;BME280;21990;42.540;23.496;2023-04-08T04:49:49;93615.44;;;3.19;84.55
35888;BME280;21990;42.540;23.496;2023-04-08T04:52:15;93619.53;;;3.23;84.25
35888;BME280;21990;42.540;23.496;2023-04-08T04:54:40;93620.28;;;3.24;84.21
35888;BME280;21990;42.540;23.496;2023-04-08T04:57:06;93627.41;;;3.25;84.10
35888;BME280;21990;42.540;23.496;2023-04-08T04:59:31;93630.75;;;3.29;85.08
35888;BME280;21990;42.540;23.496;2023-04-08T05:01:57;93629.50;;;3.30;84.67
35888;BME280;21990;42.540;23.496;2023-04-08T05:04:23;93631.03;;;3.31;84.72
35888;BME280;21990;42.540;23.496;2023-04-08T05:06:49;93617.72;;;3.20;84.70
35888;BME280;21990;42.540;23.496;2023-04-08T05:09:15;93625.94;;;3.29;84.97
35888;BME280;21990;42.540;23.496;2023-04-08T05:11:40;93627.75;;;3.32;84.82
35888;BME280;21990;42.540;23.496;2023-04-08T05:14:06;93620.44;;;3.35;84.79
35888;BME280;21990;42.540;23.496;2023-04-08T05:16:32;93615.94;;;3.38;84.97
35888;BME280;21990;42.540;23.496;2023-04-08T05:18:58;93621.88;;;3.45;84.43
35888;BME280;21990;42.540;23.496;2023-04-08T05:21:24;93614.56;;;3.48;84.64
35888;BME280;21990;42.540;23.496;2023-04-08T05:23:50;93623.22;;;3.50;84.80
35888;BME280;21990;42.540;23.496;2023-04-08T05:26:19;93612.31;;;3.52;85.02
35888;BME280;21990;42.540;23.496;2023-04-08T05:28:49;93620.00;;;3.57;85.50
35888;BME280;21990;42.540;23.496;2023-04-08T05:31:16;93611.13;;;3.58;86.54
35888;BME280;21990;42.540;23.496;2023-04-08T05:33:42;93607.59;;;3.58;86.32
35888;BME280;21990;42.540;23.496;2023-04-08T05:36:07;93602.59;;;3.62;86.92
35888;BME280;21990;42.540;23.496;2023-04-08T05:38:33;93610.38;;;3.78;88.04
35888;BME280;21990;42.540;23.496;2023-04-08T05:40:58;93616.63;;;3.93;87.95
35888;BME280;21990;42.540;23.496;2023-04-08T05:43:24;93611.00;;;4.08;87.50
35888;BME280;21990;42.540;23.496;2023-04-08T05:45:49;93612.81;;;4.11;87.55
35888;BME280;21990;42.540;23.496;2023-04-08T05:48:15;93616.03;;;4.29;87.62
35888;BME280;21990;42.540;23.496;2023-04-08T05:50:41;93611.84;;;4.40;87.54
35888;BME280;21990;42.540;23.496;2023-04-08T05:53:08;93610.69;;;4.52;86.04
35888;BME280;21990;42.540;23.496;2023-04-08T05:55:33;93618.66;;;4.64;83.72
35888;BME280;21990;42.540;23.496;2023-04-08T05:57:59;93604.72;;;4.64;82.64
35888;BME280;21990;42.540;23.496;2023-04-08T06:00:24;93612.16;;;4.73;82.77
35888;BME280;21990;42.540;23.496;2023-04-08T06:02:51;93608.59;;;4.72;81.59
35888;BME280;21990;42.540;23.496;2023-04-08T06:05:16;93616.81;;;4.82;82.35
35888;BME280;21990;42.540;23.496;2023-04-08T06:07:43;93614.28;;;4.84;80.96
35888;BME280;21990;42.540;23.496;2023-04-08T06:10:09;93614.59;;;4.91;81.55
35888;BME280;21990;42.540;23.496;2023-04-08T06:12:36;93614.13;;;4.98;80.84
35888;BME280;21990;42.540;23.496;2023-04-08T06:15:05;93603.47;;;4.97;80.68
35888;BME280;21990;42.540;23.496;2023-04-08T06:17:31;93605.00;;;4.98;80.33
35888;BME280;21990;42.540;23.496;2023-04-08T06:19:57;93607.34;;;5.05;80.63
35888;BME280;21990;42.540;23.496;2023-04-08T06:22:22;93612.41;;;5.06;81.24
35888;BME280;21990;42.540;23.496;2023-04-08T06:24:48;93605.09;;;5.09;81.36
35888;BME280;21990;42.540;23.496;2023-04-08T06:27:14;93608.19;;;5.16;80.60
35888;BME280;21990;42.540;23.496;2023-04-08T06:29:40;93610.00;;;5.19;80.09
35888;BME280;21990;42.540;23.496;2023-04-08T06:32:05;93615.41;;;5.29;80.41
35888;BME280;21990;42.540;23.496;2023-04-08T06:34:31;93601.22;;;5.38;80.13
35888;BME280;21990;42.540;23.496;2023-04-08T06:36:57;93607.88;;;5.46;79.80
35888;BME280;21990;42.540;23.496;2023-04-08T06:39:22;93606.88;;;5.49;79.78
35888;BME280;21990;42.540;23.496;2023-04-08T06:41:48;93624.97;;;5.59;78.84
35888;BME280;21990;42.540;23.496;2023-04-08T06:44:14;93616.88;;;5.66;78.04
35888;BME280;21990;42.540;23.496;2023-04-08T06:46:40;93622.47;;;5.66;78.83
35888;BME280;21990;42.540;23.496;2023-04-08T06:49:05;93620.47;;;5.72;79.26
35888;BME280;21990;42.540;23.496;2023-04-08T06:51:31;93622.53;;;5.78;78.67
35888;BME280;21990;42.540;23.496;2023-04-08T06:53:57;93620.03;;;5.80;79.00
35888;BME280;21990;42.540;23.496;2023-04-08T06:56:22;93620.53;;;5.84;78.50
35888;BME280;21990;42.540;23.496;2023-04-08T06:58:51;93625.94;;;5.87;77.93
35888;BME280;21990;42.540;23.496;2023-04-08T07:01:16;93623.78;;;5.77;78.07
35888;BME280;21990;42.540;23.496;2023-04-08T07:03:42;93630.00;;;5.86;78.88
35888;BME280;21990;42.540;23.496;2023-04-08T07:06:08;93627.19;;;5.92;78.60
35888;BME280;21990;42.540;23.496;2023-04-08T07:08:33;93624.41;;;5.92;77.40
35888;BME280;21990;42.540;23.496;2023-04-08T07:10:59;93624.91;;;5.90;77.63
35888;BME280;21990;42.540;23.496;2023-04-08T07:13:25;93623.16;;;5.93;77.53
35888;BME280;21990;42.540;23.496;2023-04-08T07:15:51;93621.16;;;6.04;77.41
35888;BME280;21990;42.540;23.496;2023-04-08T07:18:16;93628.09;;;6.14;76.71
35888;BME280;21990;42.540;23.496;2023-04-08T07:20:42;93627.81;;;6.12;76.33
35888;BME280;21990;42.540;23.496;2023-04-08T07:23:08;93636.47;;;6.14;75.99
35888;BME280;21990;42.540;23.496;2023-04-08T07:25:34;93634.94;;;6.19;75.89
35888;BME280;21990;42.540;23.496;2023-04-08T07:28:00;93630.16;;;6.31;76.95
35888;BME280;21990;42.540;23.496;2023-04-08T07:30:25;93628.44;;;6.44;76.43
35888;BME280;21990;42.540;23.496;2023-04-08T07:32:51;93620.31;;;6.52;75.93
35888;BME280;21990;42.540;23.496;2023-04-08T07:35:20;93629.75;;;6.60;75.38
35888;BME280;21990;42.540;23.496;2023-04-08T07:37:49;93632.31;;;6.69;75.13
35888;BME280;21990;42.540;23.496;2023-04-08T07:40:16;93630.00;;;6.73;74.30
35888;BME280;21990;42.540;23.496;2023-04-08T07:42:41;93620.63;;;6.87;75.70
35888;BME280;21990;42.540;23.496;2023-04-08T07:45:07;93635.13;;;6.91;74.71
35888;BME280;21990;42.540;23.496;2023-04-08T07:47:33;93637.69;;;7.00;74.16
35888;BME280;21990;42.540;23.496;2023-04-08T07:49:58;93641.75;;;7.16;72.91
35888;BME280;21990;42.540;23.496;2023-04-08T07:52:24;93635.91;;;7.08;73.22
35888;BME280;21990;42.540;23.496;2023-04-08T07:54:50;93641.28;;;7.23;71.96
35888;BME280;21990;42.540;23.496;2023-04-08T07:57:16;93646.88;;;7.29;72.38
35888;BME280;21990;42.540;23.496;2023-04-08T07:59:41;93643.81;;;7.32;72.34
35888;BME280;21990;42.540;23.496;2023-04-08T08:02:07;93645.84;;;7.37;72.23
35888;BME280;21990;42.540;23.496;2023-04-08T08:04:32;93658.06;;;7.51;71.49
35888;BME280;21990;42.540;23.496;2023-04-08T08:06:58;93649.63;;;7.73;72.65
35888;BME280;21990;42.540;23.496;2023-04-08T08:09:24;93647.88;;;7.64;71.23
35888;BME280;21990;42.540;23.496;2023-04-08T08:11:49;93648.38;;;7.69;70.42
35888;BME280;21990;42.540;23.496;2023-04-08T08:14:15;93649.38;;;7.71;70.51
35888;BME280;21990;42.540;23.496;2023-04-08T08:16:40;93646.84;;;7.73;70.45
35888;BME280;21990;42.540;23.496;2023-04-08T08:19:06;93645.28;;;7.83;70.80
35888;BME280;21990;42.540;23.496;2023-04-08T08:21:36;93643.72;;;7.99;70.61
35888;BME280;21990;42.540;23.496;2023-04-08T08:24:01;93638.81;;;8.16;69.77
35888;BME280;21990;42.540;23.496;2023-04-08T08:26:27;93644.38;;;8.27;68.47
35888;BME280;21990;42.540;23.496;2023-04-08T08:28:53;93637.25;;;8.26;67.72
35888;BME280;21990;42.540;23.496;2023-04-08T08:31:19;93656.59;;;8.41;66.96
35888;BME280;21990;42.540;23.496;2023-04-08T08:33:44;93642.28;;;8.44;66.73
35888;BME280;21990;42.540;23.496;2023-04-08T08:36:11;93654.22;;;8.56;67.74
35888;BME280;21990;42.540;23.496;2023-04-08T08:38:36;93651.63;;;8.69;66.32
35888;BME280;21990;42.540;23.496;2023-04-08T08:41:02;93644.44;;;8.79;66.06
35888;BME280;21990;42.540;23.496;2023-04-08T08:43:29;93642.56;;;8.87;66.18
35888;BME280;21990;42.540;23.496;2023-04-08T08:45:58;93640.53;;;8.88;65.69
35888;BME280;21990;42.540;23.496;2023-04-08T08:48:24;93643.81;;;8.97;66.19
35888;BME280;21990;42.540;23.496;2023-04-08T08:50:50;93647.66;;;8.94;64.96
35888;BME280;21990;42.540;23.496;2023-04-08T08:53:16;93644.28;;;9.01;64.87
35888;BME280;21990;42.540;23.496;2023-04-08T08:55:41;93649.56;;;9.11;64.93
35888;BME280;21990;42.540;23.496;2023-04-08T08:58:07;93642.41;;;9.15;65.79
35888;BME280;21990;42.540;23.496;2023-04-08T09:00:38;93660.28;;;9.18;64.57
35888;BME280;21990;42.540;23.496;2023-04-08T09:03:21;93664.66;;;9.13;64.08
35888;BME280;21990;42.540;23.496;2023-04-08T09:05:52;93656.31;;;9.02;64.58
35888;BME280;21990;42.540;23.496;2023-04-08T09:10:53;93667.00;;;9.03;65.25
35888;BME280;21990;42.540;23.496;2023-04-08T09:13:21;93658.47;;;9.20;64.25
35888;BME280;21990;42.540;23.496;2023-04-08T09:16:04;93660.88;;;9.40;65.29
35888;BME280;21990;42.540;23.496;2023-04-08T09:18:31;93667.75;;;9.45;64.10
35888;BME280;21990;42.540;23.496;2023-04-08T09:21:01;93659.72;;;9.54;63.70
35888;BME280;21990;42.540;23.496;2023-04-08T09:26:16;93663.56;;;9.57;63.68
35888;BME280;21990;42.540;23.496;2023-04-08T09:28:43;93657.06;;;9.68;63.21
35888;BME280;21990;42.540;23.496;2023-04-08T09:31:26;93662.59;;;9.79;64.48
35888;BME280;21990;42.540;23.496;2023-04-08T09:33:57;93664.91;;;9.80;63.37
35888;BME280;21990;42.540;23.496;2023-04-08T09:36:23;93658.13;;;9.89;63.42
35888;BME280;21990;42.540;23.496;2023-04-08T09:38:50;93655.28;;;9.94;61.82
35888;BME280;21990;42.540;23.496;2023-04-08T09:41:17;93650.06;;;10.04;64.53
35888;BME280;21990;42.540;23.496;2023-04-08T09:46:15;93644.88;;;10.08;62.51
35888;BME280;21990;42.540;23.496;2023-04-08T09:49:11;93651.75;;;10.18;62.96
35888;BME280;21990;42.540;23.496;2023-04-08T09:51:48;93647.19;;;10.15;62.87
35888;BME280;21990;42.540;23.496;2023-04-08T09:54:19;93640.88;;;10.28;62.08
35888;BME280;21990;42.540;23.496;2023-04-08T09:56:53;93638.47;;;10.37;62.37
35888;BME280;21990;42.540;23.496;2023-04-08T09:59:26;93629.13;;;10.67;62.98
35888;BME280;21990;42.540;23.496;2023-04-08T10:01:56;93633.63;;;10.94;59.69
35888;BME280;21990;42.540;23.496;2023-04-08T10:04:25;93635.06;;;10.63;60.91
35888;BME280;21990;42.540;23.496;2023-04-08T10:06:57;93630.03;;;10.56;60.26
35888;BME280;21990;42.540;23.496;2023-04-08T10:09:26;93617.94;;;10.61;60.78
35888;BME280;21990;42.540;23.496;2023-04-08T10:11:54;93621.06;;;10.76;57.87
35888;BME280;21990;42.540;23.496;2023-04-08T10:14:20;93623.94;;;10.52;55.51
35888;BME280;21990;42.540;23.496;2023-04-08T10:16:46;93618.59;;;10.48;57.96
35888;BME280;21990;42.540;23.496;2023-04-08T10:19:37;93609.84;;;10.52;57.53
35888;BME280;21990;42.540;23.496;2023-04-08T10:27:42;93605.81;;;11.04;54.42
35888;BME280;21990;42.540;23.496;2023-04-08T10:32:55;93600.63;;;11.71;53.15
35888;BME280;21990;42.540;23.496;2023-04-08T10:35:33;93600.16;;;11.86;54.72
35888;BME280;21990;42.540;23.496;2023-04-08T10:37:59;93597.97;;;11.92;52.12
35888;BME280;21990;42.540;23.496;2023-04-08T10:40:25;93591.28;;;11.63;51.56
35888;BME280;21990;42.540;23.496;2023-04-08T10:42:57;93594.59;;;11.49;53.56
35888;BME280;21990;42.540;23.496;2023-04-08T10:45:23;93602.28;;;11.48;51.79
35888;BME280;21990;42.540;23.496;2023-04-08T10:47:49;93604.41;;;11.29;55.11
35888;BME280;21990;42.540;23.496;2023-04-08T10:50:16;93601.88;;;11.25;55.01
35888;BME280;21990;42.540;23.496;2023-04-08T10:52:51;93605.25;;;11.24;57.23
35888;BME280;21990;42.540;23.496;2023-04-08T10:55:25;93606.56;;;11.23;56.55
35888;BME280;21990;42.540;23.496;2023-04-08T10:57:51;93590.47;;;11.18;56.92
35888;BME280;21990;42.540;23.496;2023-04-08T11:00:18;93593.38;;;11.44;57.26
35888;BME280;21990;42.540;23.496;2023-04-08T11:02:44;93593.78;;;11.35;55.82
35888;BME280;21990;42.540;23.496;2023-04-08T11:05:10;93585.19;;;11.27;54.73
35888;BME280;21990;42.540;23.496;2023-04-08T11:07:42;93589.03;;;11.11;54.43
35888;BME280;21990;42.540;23.496;2023-04-08T11:10:08;93593.47;;;11.07;55.71
35888;BME280;21990;42.540;23.496;2023-04-08T11:12:34;93583.16;;;11.09;57.42
35888;BME280;21990;42.540;23.496;2023-04-08T11:15:02;93575.78;;;11.06;57.58
35888;BME280;21990;42.540;23.496;2023-04-08T11:17:28;93576.75;;;11.27;57.46
35888;BME280;21990;42.540;23.496;2023-04-08T11:19:54;93569.50;;;11.45;56.99
35888;BME280;21990;42.540;23.496;2023-04-08T11:22:21;93584.56;;;11.34;56.11
35888;BME280;21990;42.540;23.496;2023-04-08T11:24:48;93570.59;;;11.10;55.11
35888;BME280;21990;42.540;23.496;2023-04-08T11:27:14;93562.41;;;11.25;52.02
35888;BME280;21990;42.540;23.496;2023-04-08T11:29:40;93562.97;;;11.37;50.81
35888;BME280;21990;42.540;23.496;2023-04-08T11:32:06;93570.66;;;11.36;55.22
35888;BME280;21990;42.540;23.496;2023-04-08T11:34:38;93560.63;;;11.54;56.99
35888;BME280;21990;42.540;23.496;2023-04-08T11:37:04;93571.03;;;11.46;55.42
35888;BME280;21990;42.540;23.496;2023-04-08T11:39:31;93562.00;;;11.34;55.54
35888;BME280;21990;42.540;23.496;2023-04-08T11:41:56;93563.09;;;11.31;54.69
35888;BME280;21990;42.540;23.496;2023-04-08T11:44:31;93563.84;;;11.32;53.64
35888;BME280;21990;42.540;23.496;2023-04-08T11:46:59;93560.59;;;11.41;53.97
35888;BME280;21990;42.540;23.496;2023-04-08T11:49:27;93557.88;;;11.35;55.06
35888;BME280;21990;42.540;23.496;2023-04-08T11:51:57;93559.50;;;11.31;58.04
35888;BME280;21990;42.540;23.496;2023-04-08T11:54:33;93559.91;;;11.22;56.15
35888;BME280;21990;42.540;23.496;2023-04-08T11:56:59;93570.44;;;11.03;57.91
35888;BME280;21990;42.540;23.496;2023-04-08T11:59:25;93564.16;;;10.97;57.86
35888;BME280;21990;42.540;23.496;2023-04-08T12:01:51;93567.56;;;11.08;58.26
35888;BME280;21990;42.540;23.496;2023-04-08T12:04:18;93571.88;;;11.09;56.95
35888;BME280;21990;42.540;23.496;2023-04-08T12:06:43;93568.31;;;11.09;57.64
35888;BME280;21990;42.540;23.496;2023-04-08T12:09:12;93566.69;;;11.13;56.59
35888;BME280;21990;42.540;23.496;2023-04-08T12:11:38;93560.97;;;11.19;55.89
35888;BME280;21990;42.540;23.496;2023-04-08T12:14:04;93552.66;;;11.26;56.31
35888;BME280;21990;42.540;23.496;2023-04-08T12:16:30;93557.34;;;11.37;56.49
35888;BME280;21990;42.540;23.496;2023-04-08T12:18:55;93548.16;;;11.50;55.56
35888;BME280;21990;42.540;23.496;2023-04-08T12:21:21;93542.41;;;11.55;55.90
35888;BME280;21990;42.540;23.496;2023-04-08T12:23:47;93548.59;;;11.54;59.08
35888;BME280;21990;42.540;23.496;2023-04-08T12:26:12;93550.00;;;11.60;60.05
35888;BME280;21990;42.540;23.496;2023-04-08T12:28:38;93550.88;;;11.68;59.86
35888;BME280;21990;42.540;23.496;2023-04-08T12:31:04;93542.97;;;11.67;60.10
35888;BME280;21990;42.540;23.496;2023-04-08T12:33:30;93548.53;;;11.72;60.97
35888;BME280;21990;42.540;23.496;2023-04-08T12:35:56;93546.00;;;11.69;60.28
35888;BME280;21990;42.540;23.496;2023-04-08T12:38:23;93541.53;;;11.60;60.08
35888;BME280;21990;42.540;23.496;2023-04-08T12:40:49;93532.97;;;11.66;61.25
35888;BME280;21990;42.540;23.496;2023-04-08T12:43:15;93535.94;;;11.73;60.00
35888;BME280;21990;42.540;23.496;2023-04-08T12:45:41;93520.66;;;11.82;59.55
35888;BME280;21990;42.540;23.496;2023-04-08T12:48:06;93520.66;;;11.82;59.55
35888;BME280;21990;42.540;23.496;2023-04-08T12:50:32;93521.72;;;11.92;59.32
35888;BME280;21990;42.540;23.496;2023-04-08T12:52:58;93514.66;;;11.99;58.37
35888;BME280;21990;42.540;23.496;2023-04-08T12:55:23;93500.66;;;11.93;55.73
35888;BME280;21990;42.540;23.496;2023-04-08T12:57:52;93499.38;;;11.81;54.70
35888;BME280;21990;42.540;23.496;2023-04-08T13:00:17;93494.66;;;11.57;53.17
35888;BME280;21990;42.540;23.496;2023-04-08T13:02:44;93500.38;;;11.52;54.72
35888;BME280;21990;42.540;23.496;2023-04-08T13:05:10;93502.97;;;11.23;55.49
35888;BME280;21990;42.540;23.496;2023-04-08T13:07:35;93509.25;;;10.98;57.10
35888;BME280;21990;42.540;23.496;2023-04-08T13:10:02;93512.50;;;10.88;57.29
35888;BME280;21990;42.540;23.496;2023-04-08T13:12:28;93495.97;;;10.79;57.54
35888;BME280;21990;42.540;23.496;2023-04-08T13:14:54;93499.94;;;10.71;58.33